Time;durP1;ratioP1;P1;durP2;ratioP2;P2;SDS_P1;SDS_P2;PMS_P1;PMS_P2;Temp;Humidity;BMP_temperature;BMP_pressure;BME280_temperature;BME280_humidity;BME280_pressure;Samples;Min_cycle;Max_cycle;Signal;HPM_P1;HPM_P2
2023/03/03 00:02:22;;;;;;;;;;;;;;;5.78;72.31;101277.94;5017636;28;2345;-84
2023/03/03 00:04:49;;;;;;;;;;;;;;;5.69;72.69;101271.75;5018973;28;2329;-85
2023/03/03 00:07:21;;;;;;;;;;;;;;;5.66;72.79;101280.13;5017872;28;2493;-84
2023/03/03 00:09:48;;;;;;;;;;;;;;;5.69;72.73;101271.75;5016367;28;2153;-84
2023/03/03 00:12:14;;;;;;;;;;;;;;;5.65;72.81;101280.31;5022528;28;2232;-85
2023/03/03 00:14:41;;;;;;;;;;;;;;;5.61;72.70;101282.47;5022420;28;2513;-84
2023/03/03 00:17:08;;;;;;;;;;;;;;;5.67;72.70;101276.44;5021859;28;2350;-85
2023/03/03 00:19:34;;;;;;;;;;;;;;;5.61;72.85;101269.09;5002599;28;1501;-85
2023/03/03 00:22:01;;;;;;;;;;;;;;;5.66;72.40;101265.94;5025387;28;2555;-85
2023/03/03 00:24:27;;;;;;;;;;;;;;;5.58;72.76;101264.09;5014274;28;2269;-84
2023/03/03 00:26:54;;;;;;;;;;;;;;;5.57;72.73;101277.66;5003471;28;2334;-85
2023/03/03 00:29:21;;;;;;;;;;;;;;;5.57;72.69;101281.16;5014433;28;2677;-85
2023/03/03 00:31:48;;;;;;;;;;;;;;;5.63;72.54;101274.28;5018137;28;2210;-85
2023/03/03 00:34:14;;;;;;;;;;;;;;;5.59;72.42;101262.25;5014925;28;2413;-84
2023/03/03 00:36:41;;;;;;;;;;;;;;;5.58;72.51;101268.63;5015502;28;2342;-85
2023/03/03 00:39:07;;;;;;;;;;;;;;;5.52;72.65;101270.13;5007878;28;2384;-84
2023/03/03 00:41:34;;;;;;;;;;;;;;;5.53;72.56;101269.13;5010089;28;2387;-84
2023/03/03 00:44:01;;;;;;;;;;;;;;;5.50;72.73;101276.63;5011001;28;1929;-83
2023/03/03 00:46:27;;;;;;;;;;;;;;;5.44;72.75;101268.31;5008468;28;2363;-84
2023/03/03 00:48:54;;;;;;;;;;;;;;;5.48;72.59;101282.16;5012356;28;2443;-84
2023/03/03 00:51:20;;;;;;;;;;;;;;;5.45;72.58;101279.81;5019541;28;1988;-84
2023/03/03 00:53:47;;;;;;;;;;;;;;;5.44;72.56;101283.47;5014582;28;3074;-84
2023/03/03 00:56:14;;;;;;;;;;;;;;;5.41;72.75;101274.00;5008347;28;1555;-84
2023/03/03 00:58:40;;;;;;;;;;;;;;;5.42;72.60;101283.66;5015784;28;2330;-84
2023/03/03 01:01:07;;;;;;;;;;;;;;;5.38;72.82;101284.16;5019831;28;2422;-85
2023/03/03 01:03:33;;;;;;;;;;;;;;;5.35;72.89;101285.31;5011456;28;2558;-83
2023/03/03 01:06:00;;;;;;;;;;;;;;;5.37;72.91;101290.50;5020526;28;1379;-86
2023/03/03 01:08:26;;;;;;;;;;;;;;;5.37;72.65;101290.50;5011771;28;1399;-85
2023/03/03 01:10:53;;;;;;;;;;;;;;;5.35;72.72;101276.47;5019055;28;2086;-85
2023/03/03 01:13:19;;;;;;;;;;;;;;;5.38;72.74;101270.81;5019489;28;1370;-86
2023/03/03 01:15:46;;;;;;;;;;;;;;;5.35;72.50;101269.28;5012829;28;2038;-85
2023/03/03 01:18:13;;;;;;;;;;;;;;;5.31;72.66;101265.31;5007731;28;2522;-84
2023/03/03 01:20:39;;;;;;;;;;;;;;;5.30;72.65;101269.00;5011810;28;1102;-85
2023/03/03 01:23:06;;;;;;;;;;;;;;;5.29;72.70;101269.13;5012187;28;2214;-85
2023/03/03 01:25:32;;;;;;;;;;;;;;;5.30;72.62;101263.66;5010060;28;2411;-85
2023/03/03 01:27:59;;;;;;;;;;;;;;;5.28;72.44;101256.78;5019342;28;2374;-86
2023/03/03 01:30:25;;;;;;;;;;;;;;;5.26;72.81;101253.44;5016055;28;2508;-85
2023/03/03 01:32:52;;;;;;;;;;;;;;;5.21;72.95;101249.47;5010701;28;2069;-85
2023/03/03 01:35:19;;;;;;;;;;;;;;;5.24;72.62;101248.28;5011656;28;1373;-85
2023/03/03 01:37:45;;;;;;;;;;;;;;;5.30;72.34;101244.13;5010143;28;1458;-85
2023/03/03 01:40:12;;;;;;;;;;;;;;;5.25;72.38;101255.28;5004351;28;2274;-85
2023/03/03 01:42:39;;;;;;;;;;;;;;;5.19;72.62;101258.63;4999055;28;2311;-86
2023/03/03 01:45:06;;;;;;;;;;;;;;;5.18;72.63;101256.97;5000126;28;2267;-86
2023/03/03 01:47:32;;;;;;;;;;;;;;;5.18;72.87;101254.31;4998351;28;2449;-85
2023/03/03 01:49:59;;;;;;;;;;;;;;;5.26;72.31;101254.28;5001795;28;2191;-85
2023/03/03 01:52:26;;;;;;;;;;;;;;;5.16;72.55;101249.13;4998378;28;2333;-84
2023/03/03 01:54:53;;;;;;;;;;;;;;;5.13;72.62;101244.13;5000217;28;2657;-85
2023/03/03 01:57:20;;;;;;;;;;;;;;;5.15;72.51;101243.97;5003452;28;2344;-85
2023/03/03 01:59:46;;;;;;;;;;;;;;;5.15;72.56;101246.63;4998118;28;2557;-83
2023/03/03 02:02:13;;;;;;;;;;;;;;;5.10;72.73;101248.97;5011971;28;2619;-85
2023/03/03 02:04:40;;;;;;;;;;;;;;;5.08;72.70;101245.63;5002298;28;2845;-85
2023/03/03 02:07:08;;;;;;;;;;;;;;;5.06;72.63;101237.78;5006722;28;2182;-86
2023/03/03 02:09:35;;;;;;;;;;;;;;;5.04;72.84;101242.44;5012568;28;2388;-86
2023/03/03 02:12:02;;;;;;;;;;;;;;;5.09;72.59;101239.25;5003814;28;2075;-85
2023/03/03 02:14:28;;;;;;;;;;;;;;;5.06;72.65;101240.44;5012138;28;1327;-86
2023/03/03 02:16:55;;;;;;;;;;;;;;;5.01;72.56;101232.94;5012926;28;2392;-86
2023/03/03 02:19:21;;;;;;;;;;;;;;;5.08;72.42;101225.09;5012549;28;1591;-85
2023/03/03 02:21:48;;;;;;;;;;;;;;;5.01;72.33;101224.91;5015758;28;1827;-85
2023/03/03 02:24:14;;;;;;;;;;;;;;;5.03;72.57;101226.56;5003621;28;1329;-85
2023/03/03 02:26:41;;;;;;;;;;;;;;;5.04;72.17;101225.59;5008760;28;1489;-85
2023/03/03 02:29:08;;;;;;;;;;;;;;;5.04;72.34;101230.94;5011683;28;1944;-85
2023/03/03 02:31:34;;;;;;;;;;;;;;;4.96;72.51;101237.94;5014306;28;2341;-86
2023/03/03 02:34:01;;;;;;;;;;;;;;;4.94;72.52;101231.94;5012024;28;2912;-86
2023/03/03 02:36:28;;;;;;;;;;;;;;;4.95;72.39;101216.75;5013915;28;1490;-86
2023/03/03 02:38:55;;;;;;;;;;;;;;;4.94;72.40;101213.25;5010690;28;2190;-85
2023/03/03 02:41:21;;;;;;;;;;;;;;;4.95;72.30;101211.41;5009226;28;1165;-86
2023/03/03 02:43:48;;;;;;;;;;;;;;;4.93;72.49;101214.22;5012584;28;2427;-86
2023/03/03 02:46:15;;;;;;;;;;;;;;;4.89;72.81;101206.75;5004829;28;1521;-85
2023/03/03 02:48:41;;;;;;;;;;;;;;;4.87;72.47;101206.91;5009706;28;2422;-86
2023/03/03 02:51:08;;;;;;;;;;;;;;;4.86;72.52;101207.06;5003322;28;2164;-86
2023/03/03 02:53:34;;;;;;;;;;;;;;;4.84;72.60;101207.22;5004315;28;2500;-85
2023/03/03 02:56:03;;;;;;;;;;;;;;;4.85;72.53;101203.56;5018332;28;2362;-85
2023/03/03 02:58:29;;;;;;;;;;;;;;;4.84;72.63;101212.56;5014351;28;2211;-85
2023/03/03 03:00:56;;;;;;;;;;;;;;;4.87;72.34;101204.22;5015961;28;2335;-86
2023/03/03 03:03:22;;;;;;;;;;;;;;;4.89;72.21;101202.22;5001030;28;2542;-85
2023/03/03 03:05:49;;;;;;;;;;;;;;;4.83;72.46;101197.56;4995439;28;2310;-85
2023/03/03 03:08:15;;;;;;;;;;;;;;;4.78;72.48;101190.03;4994581;28;2247;-85
2023/03/03 03:10:42;;;;;;;;;;;;;;;4.76;72.48;101181.38;4995453;28;2321;-85
2023/03/03 03:13:08;;;;;;;;;;;;;;;4.79;72.39;101185.53;5008117;28;2293;-85
2023/03/03 03:15:35;;;;;;;;;;;;;;;4.78;72.30;101183.88;4998937;28;2451;-84
2023/03/03 03:18:02;;;;;;;;;;;;;;;4.78;72.13;101184.72;5003578;28;2156;-85
2023/03/03 03:20:28;;;;;;;;;;;;;;;4.75;72.34;101182.38;5002220;28;2432;-85
2023/03/03 03:22:55;;;;;;;;;;;;;;;4.72;72.40;101181.88;5001629;28;2496;-84
2023/03/03 03:25:21;;;;;;;;;;;;;;;4.73;72.31;101181.69;5000105;28;2437;-86
2023/03/03 03:27:48;;;;;;;;;;;;;;;4.72;72.26;101193.38;5001615;28;2509;-84
2023/03/03 03:30:14;;;;;;;;;;;;;;;4.73;72.44;101187.03;5001493;28;2223;-86
2023/03/03 03:32:41;;;;;;;;;;;;;;;4.75;72.09;101185.03;5001450;28;3005;-85
2023/03/03 03:35:08;;;;;;;;;;;;;;;4.71;72.14;101174.88;5003304;28;2734;-85
2023/03/03 03:37:34;;;;;;;;;;;;;;;4.69;72.29;101171.53;5002425;28;2523;-85
2023/03/03 03:40:01;;;;;;;;;;;;;;;4.68;72.28;101173.38;4999463;28;2825;-86
2023/03/03 03:42:28;;;;;;;;;;;;;;;4.69;72.31;101174.19;4995388;28;2270;-86
2023/03/03 03:44:54;;;;;;;;;;;;;;;4.76;71.92;101167.19;5001390;28;2523;-86
2023/03/03 03:47:21;;;;;;;;;;;;;;;4.74;71.95;101166.53;4999068;28;2371;-86
2023/03/03 03:49:48;;;;;;;;;;;;;;;4.68;72.15;101173.38;4998956;28;2435;-86
2023/03/03 03:52:14;;;;;;;;;;;;;;;4.68;72.00;101172.53;4996640;28;2416;-84
2023/03/03 03:54:41;;;;;;;;;;;;;;;4.65;72.18;101165.69;5010867;28;2317;-85
2023/03/03 03:57:08;;;;;;;;;;;;;;;4.67;72.14;101163.69;4999308;28;2396;-86
2023/03/03 03:59:34;;;;;;;;;;;;;;;4.73;71.83;101162.19;5007554;28;2266;-85
2023/03/03 04:02:01;;;;;;;;;;;;;;;4.74;71.59;101150.53;4999852;28;2700;-84
2023/03/03 04:04:27;;;;;;;;;;;;;;;4.68;71.83;101145.88;4998665;28;2888;-85
2023/03/03 04:06:54;;;;;;;;;;;;;;;4.72;71.80;101142.66;4997604;28;2638;-85
2023/03/03 04:09:20;;;;;;;;;;;;;;;4.72;71.72;101137.34;4999089;28;2589;-84
2023/03/03 04:11:47;;;;;;;;;;;;;;;4.72;71.64;101136.50;5022808;28;2357;-85
2023/03/03 04:14:13;;;;;;;;;;;;;;;4.69;71.72;101136.84;5002643;28;2437;-85
2023/03/03 04:16:40;;;;;;;;;;;;;;;4.70;71.67;101151.84;5006502;28;2386;-86
2023/03/03 04:19:06;;;;;;;;;;;;;;;4.69;71.57;101144.84;5003159;28;2371;-84
2023/03/03 04:21:33;;;;;;;;;;;;;;;4.69;71.53;101139.50;5000276;28;2907;-86
2023/03/03 04:23:59;;;;;;;;;;;;;;;4.66;71.73;101137.19;5005832;28;2211;-84
2023/03/03 04:26:26;;;;;;;;;;;;;;;4.71;71.62;101140.19;5005677;28;2338;-85
2023/03/03 04:28:53;;;;;;;;;;;;;;;4.64;71.83;101137.34;5002750;28;2382;-85
2023/03/03 04:31:20;;;;;;;;;;;;;;;4.67;71.65;101130.84;5016241;28;2377;-85
2023/03/03 04:33:47;;;;;;;;;;;;;;;4.65;71.77;101123.00;5005348;28;2276;-85
2023/03/03 04:36:13;;;;;;;;;;;;;;;4.71;71.37;101118.84;5001106;28;2206;-85
2023/03/03 04:38:40;;;;;;;;;;;;;;;4.67;71.58;101120.97;5004268;28;2557;-85
2023/03/03 04:41:06;;;;;;;;;;;;;;;4.64;71.58;101129.31;5008321;28;2694;-85
2023/03/03 04:43:33;;;;;;;;;;;;;;;4.63;71.70;101127.66;5001586;28;2237;-85
2023/03/03 04:46:00;;;;;;;;;;;;;;;4.65;71.57;101124.84;5000856;28;2414;-85
2023/03/03 04:48:26;;;;;;;;;;;;;;;4.63;71.68;101119.66;5001630;28;2368;-85
2023/03/03 04:50:53;;;;;;;;;;;;;;;4.66;71.46;101110.50;4998431;28;2747;-85
2023/03/03 04:53:19;;;;;;;;;;;;;;;4.62;71.83;101107.34;5001502;28;2473;-85
2023/03/03 04:55:46;;;;;;;;;;;;;;;4.64;71.32;101101.81;5004943;28;2637;-85
2023/03/03 04:58:14;;;;;;;;;;;;;;;4.64;71.50;101093.81;4997488;28;2454;-85
2023/03/03 05:00:41;;;;;;;;;;;;;;;4.62;71.51;101086.00;5015341;28;2796;-86
2023/03/03 05:03:08;;;;;;;;;;;;;;;4.60;71.77;101081.81;5003372;28;2347;-86
2023/03/03 05:05:35;;;;;;;;;;;;;;;4.62;71.59;101091.31;5001115;28;2132;-86
2023/03/03 05:08:01;;;;;;;;;;;;;;;4.61;71.66;101081.63;4996667;28;2342;-85
2023/03/03 05:10:28;;;;;;;;;;;;;;;4.63;71.41;101079.63;4997022;28;2183;-85
2023/03/03 05:12:55;;;;;;;;;;;;;;;4.61;71.49;101067.47;5001877;28;2289;-86
2023/03/03 05:15:21;;;;;;;;;;;;;;;4.60;71.39;101073.81;5001869;28;2189;-86
2023/03/03 05:17:48;;;;;;;;;;;;;;;4.63;71.38;101068.16;5001961;28;2403;-84
2023/03/03 05:20:14;;;;;;;;;;;;;;;4.66;71.18;101062.47;5002765;28;2461;-85
2023/03/03 05:22:41;;;;;;;;;;;;;;;4.61;71.20;101057.63;5001490;28;2178;-84
2023/03/03 05:25:08;;;;;;;;;;;;;;;4.63;71.51;101060.13;5005971;28;2367;-86
2023/03/03 05:27:38;;;;;;;;;;;;;;;4.61;71.51;101059.47;5020301;28;2255;-85
2023/03/03 05:30:04;;;;;;;;;;;;;;;4.59;71.23;101062.31;4997022;28;2893;-86
2023/03/03 05:32:31;;;;;;;;;;;;;;;4.64;71.00;101054.63;5011859;28;2379;-86
2023/03/03 05:34:58;;;;;;;;;;;;;;;4.61;71.32;101044.28;5003936;28;2227;-84
2023/03/03 05:37:24;;;;;;;;;;;;;;;4.63;71.18;101041.47;5004110;28;2079;-85
2023/03/03 05:39:51;;;;;;;;;;;;;;;4.64;71.19;101049.28;5001627;28;2394;-85
2023/03/03 05:42:18;;;;;;;;;;;;;;;4.68;70.93;101047.13;5007308;28;2152;-85
2023/03/03 05:44:44;;;;;;;;;;;;;;;4.65;71.03;101050.13;5012770;28;2145;-85
2023/03/03 05:47:11;;;;;;;;;;;;;;;4.66;71.23;101038.44;5001640;28;2284;-85
2023/03/03 05:49:37;;;;;;;;;;;;;;;4.64;71.17;101035.13;5013316;28;2279;-85
2023/03/03 05:52:04;;;;;;;;;;;;;;;4.66;70.83;101033.13;5000448;28;1954;-85
2023/03/03 05:54:30;;;;;;;;;;;;;;;4.62;70.96;101029.97;5003059;28;2204;-85
2023/03/03 05:56:57;;;;;;;;;;;;;;;4.65;70.89;101018.13;4994922;28;2572;-84
2023/03/03 05:59:23;;;;;;;;;;;;;;;4.65;70.95;101024.28;4996016;28;2649;-85
2023/03/03 06:01:50;;;;;;;;;;;;;;;4.64;71.04;101024.44;5002801;28;2645;-84
2023/03/03 06:04:16;;;;;;;;;;;;;;;4.62;71.04;101013.94;5000567;28;2444;-85
2023/03/03 06:06:43;;;;;;;;;;;;;;;4.66;70.96;101003.75;5001907;28;2639;-84
2023/03/03 06:09:10;;;;;;;;;;;;;;;4.65;70.94;100999.44;5002330;28;1325;-84
2023/03/03 06:11:36;;;;;;;;;;;;;;;4.71;70.74;100990.75;5010802;28;1918;-85
2023/03/03 06:14:03;;;;;;;;;;;;;;;4.66;71.02;100991.25;5008433;28;1973;-85
2023/03/03 06:16:29;;;;;;;;;;;;;;;4.64;70.86;100987.91;5011032;28;1793;-85
2023/03/03 06:18:56;;;;;;;;;;;;;;;4.66;70.94;100977.09;5007606;28;3001;-85
2023/03/03 06:21:23;;;;;;;;;;;;;;;4.71;70.83;100974.75;4998624;28;2963;-85
2023/03/03 06:23:49;;;;;;;;;;;;;;;4.69;70.72;100972.22;5002480;28;2286;-85
2023/03/03 06:26:16;;;;;;;;;;;;;;;4.66;70.90;100966.41;4968553;28;1404;-85
2023/03/03 06:28:42;;;;;;;;;;;;;;;4.71;70.63;100961.41;4978800;28;2062;-84
2023/03/03 06:31:09;;;;;;;;;;;;;;;4.68;70.75;100969.75;4968214;28;1895;-85
2023/03/03 06:33:37;;;;;;;;;;;;;;;4.69;70.67;100961.56;4970357;28;1595;-85
2023/03/03 06:36:03;;;;;;;;;;;;;;;4.70;70.60;100965.88;4963947;28;1378;-86
2023/03/03 06:38:30;;;;;;;;;;;;;;;4.69;70.60;100966.06;4962448;28;1983;-86
2023/03/03 06:41:00;;;;;;;;;;;;;;;4.72;70.57;100976.41;4973002;28;1326;-85
2023/03/03 06:43:27;;;;;;;;;;;;;;;4.76;70.36;100977.72;4980884;28;1953;-85
2023/03/03 06:45:54;;;;;;;;;;;;;;;4.69;70.56;100974.06;4964162;28;1420;-85
2023/03/03 06:48:20;;;;;;;;;;;;;;;4.72;70.50;100976.41;4969847;28;2288;-84
2023/03/03 06:50:47;;;;;;;;;;;;;;;4.72;70.07;100965.72;4962767;28;2648;-84
2023/03/03 06:53:14;;;;;;;;;;;;;;;4.72;70.60;100966.56;4966387;28;1919;-85
2023/03/03 06:55:43;;;;;;;;;;;;;;;4.71;70.67;100967.56;4962647;28;1532;-85
2023/03/03 06:58:10;;;;;;;;;;;;;;;4.71;70.60;100961.41;4984591;28;1581;-84
2023/03/03 07:00:37;;;;;;;;;;;;;;;4.70;70.64;100960.53;4966280;28;2071;-83
2023/03/03 07:03:03;;;;;;;;;;;;;;;4.78;70.40;100965.03;4970882;28;1395;-84
2023/03/03 07:05:31;;;;;;;;;;;;;;;4.71;70.46;100956.06;4974713;28;2588;-82
2023/03/03 07:07:58;;;;;;;;;;;;;;;4.77;70.41;100950.88;4956988;28;2252;-85
2023/03/03 07:10:25;;;;;;;;;;;;;;;4.72;70.50;100947.03;4967177;28;1645;-84
2023/03/03 07:12:51;;;;;;;;;;;;;;;4.76;70.25;100945.69;4960569;28;1911;-84
2023/03/03 07:15:19;;;;;;;;;;;;;;;4.76;70.38;100940.34;4969612;28;2085;-85
2023/03/03 07:17:46;;;;;;;;;;;;;;;4.74;70.55;100931.72;4961002;28;2300;-84
2023/03/03 07:20:13;;;;;;;;;;;;;;;4.75;70.31;100933.34;4975335;28;2632;-84
2023/03/03 07:22:40;;;;;;;;;;;;;;;4.76;70.40;100935.00;4958910;28;2196;-84
2023/03/03 07:25:06;;;;;;;;;;;;;;;4.80;70.38;100938.19;4980572;28;2094;-84
2023/03/03 07:27:33;;;;;;;;;;;;;;;4.86;69.91;100924.97;5002168;28;2165;-84
2023/03/03 07:30:00;;;;;;;;;;;;;;;4.86;69.86;100916.16;5004209;28;2221;-86
2023/03/03 07:32:26;;;;;;;;;;;;;;;4.85;69.86;100909.13;5014380;28;2180;-86
2023/03/03 07:34:53;;;;;;;;;;;;;;;4.83;70.02;100903.97;4998476;28;2188;-85
2023/03/03 07:37:19;;;;;;;;;;;;;;;4.78;70.23;100906.31;4996456;28;2709;-84
2023/03/03 07:39:46;;;;;;;;;;;;;;;4.80;70.20;100911.50;4996755;28;2875;-84
2023/03/03 07:42:13;;;;;;;;;;;;;;;4.83;70.05;100903.16;5000941;28;2402;-84
2023/03/03 07:44:40;;;;;;;;;;;;;;;4.82;70.24;100901.47;5002147;28;2477;-83
2023/03/03 07:47:06;;;;;;;;;;;;;;;4.85;69.98;100901.94;5002828;28;2643;-85
2023/03/03 07:49:33;;;;;;;;;;;;;;;4.85;69.99;100899.28;5003771;28;2646;-84
2023/03/03 07:52:00;;;;;;;;;;;;;;;4.87;69.94;100899.13;5001912;28;2447;-83
2023/03/03 07:54:27;;;;;;;;;;;;;;;4.89;69.91;100889.09;5003146;28;2663;-84
2023/03/03 07:56:53;;;;;;;;;;;;;;;4.88;69.87;100882.94;5020413;28;2527;-84
2023/03/03 07:59:20;;;;;;;;;;;;;;;4.84;70.02;100884.28;5024719;28;2242;-84
2023/03/03 08:01:48;;;;;;;;;;;;;;;4.88;69.75;100885.63;5003559;28;2074;-83
2023/03/03 08:04:15;;;;;;;;;;;;;;;4.90;69.82;100880.91;5004483;28;2853;-84
2023/03/03 08:06:41;;;;;;;;;;;;;;;4.87;69.93;100878.59;5002390;28;2352;-84
2023/03/03 08:09:08;;;;;;;;;;;;;;;4.92;69.75;100880.75;5002375;28;2419;-84
2023/03/03 08:11:35;;;;;;;;;;;;;;;4.86;69.97;100866.25;5002454;28;2379;-84
2023/03/03 08:14:01;;;;;;;;;;;;;;;4.88;70.04;100871.41;4997959;28;2677;-83
2023/03/03 08:16:28;;;;;;;;;;;;;;;4.90;69.89;100874.75;5002982;28;2158;-83
2023/03/03 08:18:54;;;;;;;;;;;;;;;4.91;69.81;100863.06;5004561;28;2664;-83
2023/03/03 08:21:21;;;;;;;;;;;;;;;4.99;69.54;100863.84;5003138;28;2313;-85
2023/03/03 08:23:50;;;;;;;;;;;;;;;4.93;69.69;100856.53;5013952;28;3671;-84
2023/03/03 08:26:17;;;;;;;;;;;;;;;4.93;69.72;100855.72;5017115;28;1351;-85
2023/03/03 08:28:43;;;;;;;;;;;;;;;4.93;69.85;100845.84;5015546;28;1936;-85
2023/03/03 08:31:10;;;;;;;;;;;;;;;4.95;69.73;100851.03;5016465;28;2019;-85
2023/03/03 08:33:36;;;;;;;;;;;;;;;4.99;69.64;100842.50;5022953;28;1985;-85
2023/03/03 08:36:03;;;;;;;;;;;;;;;4.97;69.74;100847.19;5018106;28;2506;-84
2023/03/03 08:38:29;;;;;;;;;;;;;;;4.94;69.64;100846.69;5008469;28;5347;-84
2023/03/03 08:40:56;;;;;;;;;;;;;;;4.97;69.66;100844.53;5020056;28;1368;-85
2023/03/03 08:43:23;;;;;;;;;;;;;;;4.98;69.64;100843.50;5015057;28;2225;-84
2023/03/03 08:45:50;;;;;;;;;;;;;;;4.99;69.62;100826.47;5014614;28;2432;-84
2023/03/03 08:48:16;;;;;;;;;;;;;;;4.95;69.87;100821.69;5011905;28;2467;-84
2023/03/03 08:50:43;;;;;;;;;;;;;;;4.98;69.64;100819.47;5015582;28;2476;-84
2023/03/03 08:53:10;;;;;;;;;;;;;;;5.06;69.47;100812.41;5014210;28;2952;-83
2023/03/03 08:55:36;;;;;;;;;;;;;;;5.15;69.17;100811.38;5013651;28;1993;-83
2023/03/03 08:58:03;;;;;;;;;;;;;;;5.00;69.59;100811.31;5005918;28;2358;-83
2023/03/03 09:00:29;;;;;;;;;;;;;;;5.04;69.61;100801.09;5001444;28;2755;-84
2023/03/03 09:02:56;;;;;;;;;;;;;;;5.05;69.55;100802.75;4995179;28;2234;-83
2023/03/03 09:05:23;;;;;;;;;;;;;;;5.08;69.40;100797.06;5001134;28;2548;-83
2023/03/03 09:07:50;;;;;;;;;;;;;;;5.05;69.52;100792.91;5000634;28;2589;-83
2023/03/03 09:10:16;;;;;;;;;;;;;;;5.08;69.53;100783.72;5010109;28;2243;-82
2023/03/03 09:12:43;;;;;;;;;;;;;;;5.13;69.33;100779.50;5010352;28;2444;-82
2023/03/03 09:15:09;;;;;;;;;;;;;;;5.13;69.43;100776.81;5009367;28;2420;-84
2023/03/03 09:17:36;;;;;;;;;;;;;;;5.12;69.40;100775.19;5004737;28;1907;-83
2023/03/03 09:20:03;;;;;;;;;;;;;;;5.16;69.42;100770.31;5003553;28;2622;-83
2023/03/03 09:22:29;;;;;;;;;;;;;;;5.11;69.41;100765.47;5006919;28;3406;-84
2023/03/03 09:24:56;;;;;;;;;;;;;;;5.13;69.42;100768.00;5016586;28;2013;-84
2023/03/03 09:27:22;;;;;;;;;;;;;;;5.14;69.44;100765.13;5011110;28;2407;-83
2023/03/03 09:29:49;;;;;;;;;;;;;;;5.14;69.40;100774.97;5009922;28;2027;-84
2023/03/03 09:32:15;;;;;;;;;;;;;;;5.13;69.43;100759.97;5011699;28;2012;-83
2023/03/03 09:34:42;;;;;;;;;;;;;;;5.16;69.31;100747.09;5011024;28;2547;-84
2023/03/03 09:37:09;;;;;;;;;;;;;;;5.14;69.44;100759.78;5014034;28;1957;-84
2023/03/03 09:39:35;;;;;;;;;;;;;;;5.14;69.38;100757.13;5013583;28;2626;-84
2023/03/03 09:42:02;;;;;;;;;;;;;;;5.14;69.58;100751.78;5015738;28;2247;-84
2023/03/03 09:44:28;;;;;;;;;;;;;;;5.14;69.50;100741.09;5012911;28;2532;-84
2023/03/03 09:46:55;;;;;;;;;;;;;;;5.13;69.42;100747.47;5004301;28;2056;-84
2023/03/03 09:49:21;;;;;;;;;;;;;;;5.12;69.49;100740.47;5011614;28;2564;-84
2023/03/03 09:51:48;;;;;;;;;;;;;;;5.12;69.70;100744.97;5012122;28;1359;-84
2023/03/03 09:54:14;;;;;;;;;;;;;;;5.17;69.49;100743.41;5006753;28;2532;-84
2023/03/03 09:56:41;;;;;;;;;;;;;;;5.15;69.64;100740.09;5007940;28;2508;-83
2023/03/03 09:59:07;;;;;;;;;;;;;;;5.15;69.52;100742.78;5009747;28;2286;-84
2023/03/03 10:01:34;;;;;;;;;;;;;;;5.18;69.57;100734.41;5003672;28;2472;-83
2023/03/03 10:04:00;;;;;;;;;;;;;;;5.18;69.51;100721.06;5005733;28;2521;-84
2023/03/03 10:06:27;;;;;;;;;;;;;;;5.16;69.61;100711.56;5012685;28;1555;-83
2023/03/03 10:08:53;;;;;;;;;;;;;;;5.19;69.23;100706.69;5001598;28;2064;-83
2023/03/03 10:11:20;;;;;;;;;;;;;;;5.20;69.39;100704.84;5005777;28;2222;-83
2023/03/03 10:13:47;;;;;;;;;;;;;;;5.20;69.48;100707.50;5011557;28;2356;-83
2023/03/03 10:16:13;;;;;;;;;;;;;;;5.24;69.38;100698.13;5011060;28;1392;-84
2023/03/03 10:18:40;;;;;;;;;;;;;;;5.21;69.43;100698.50;5016657;28;2441;-83
2023/03/03 10:21:07;;;;;;;;;;;;;;;5.20;69.57;100689.63;5002191;28;2485;-83
2023/03/03 10:23:33;;;;;;;;;;;;;;;5.20;69.50;100691.47;5001270;28;2387;-82
2023/03/03 10:26:03;;;;;;;;;;;;;;;5.25;69.45;100691.78;5005335;28;1853;-83
2023/03/03 10:28:30;;;;;;;;;;;;;;;5.20;69.40;100689.63;5008954;28;2070;-81
2023/03/03 10:30:56;;;;;;;;;;;;;;;5.23;69.60;100685.78;5017422;28;2145;-82
2023/03/03 10:33:23;;;;;;;;;;;;;;;4.05;66.22;100675.44;5013676;28;1980;-78
2023/03/03 10:35:50;;;;;;;;;;;;;;;4.91;68.89;100677.06;5000590;28;2529;-82
2023/03/03 10:38:16;;;;;;;;;;;;;;;5.03;68.87;100664.13;5008696;28;1756;-82
2023/03/03 10:40:43;;;;;;;;;;;;;;;5.15;68.55;100656.50;5006256;28;3764;-82
2023/03/03 10:43:09;;;;;;;;;;;;;;;5.12;68.71;100657.69;5018258;28;2797;-81
2023/03/03 10:45:36;;;;;;;;;;;;;;;5.22;68.68;100639.56;5015352;28;2554;-81
2023/03/03 10:48:03;;;;;;;;;;;;;;;5.20;68.75;100643.41;5009610;28;2822;-82
2023/03/03 10:50:30;;;;;;;;;;;;;;;5.24;68.72;100632.19;5015165;28;2280;-82
2023/03/03 10:52:56;;;;;;;;;;;;;;;5.23;68.92;100619.88;5029391;28;1906;-82
2023/03/03 10:55:23;;;;;;;;;;;;;;;5.16;69.02;100618.94;5004191;28;2480;-82
2023/03/03 10:57:51;;;;;;;;;;;;;;;5.14;69.28;100615.59;5007898;28;1957;-82
2023/03/03 11:00:17;;;;;;;;;;;;;;;5.16;69.37;100604.75;5005547;28;2787;-82
2023/03/03 11:02:44;;;;;;;;;;;;;;;5.15;69.36;100590.59;5003267;28;2707;-82
2023/03/03 11:05:10;;;;;;;;;;;;;;;5.18;69.28;100594.72;5020515;28;2571;-82
2023/03/03 11:07:37;;;;;;;;;;;;;;;5.18;69.42;100590.22;5015470;28;2164;-82
2023/03/03 11:10:05;;;;;;;;;;;;;;;5.19;69.45;100591.03;5013465;28;1643;-82
2023/03/03 11:12:31;;;;;;;;;;;;;;;5.19;69.32;100578.50;5025000;28;2530;-84
2023/03/03 11:14:58;;;;;;;;;;;;;;;5.18;69.43;100568.84;5023890;28;2249;-82
2023/03/03 11:17:24;;;;;;;;;;;;;;;5.21;69.39;100556.97;5019399;28;1011;-83
2023/03/03 11:19:51;;;;;;;;;;;;;;;5.22;69.43;100561.28;5016277;28;2565;-83
2023/03/03 11:22:18;;;;;;;;;;;;;;;5.18;69.53;100562.69;5002572;28;2231;-83
2023/03/03 11:24:45;;;;;;;;;;;;;;;5.22;69.55;100566.63;5001748;28;2150;-84
2023/03/03 11:27:12;;;;;;;;;;;;;;;5.26;69.48;100556.41;5020704;28;2405;-84
2023/03/03 11:29:38;;;;;;;;;;;;;;;5.24;69.44;100549.41;5001903;28;2286;-85
2023/03/03 11:32:05;;;;;;;;;;;;;;;5.23;69.55;100546.91;5003752;28;2021;-83
2023/03/03 11:34:32;;;;;;;;;;;;;;;5.22;69.62;100537.25;5005601;28;2749;-83
2023/03/03 11:36:59;;;;;;;;;;;;;;;5.22;69.44;100538.09;5003281;28;1202;-84
2023/03/03 11:39:26;;;;;;;;;;;;;;;5.21;69.71;100546.28;5003876;28;2553;-84
2023/03/03 11:41:53;;;;;;;;;;;;;;;5.21;69.67;100539.09;5012308;28;2558;-83
2023/03/03 11:44:19;;;;;;;;;;;;;;;5.22;69.57;100530.06;5004518;28;2364;-84
2023/03/03 11:46:46;;;;;;;;;;;;;;;5.24;69.54;100520.03;4990175;28;2805;-84
2023/03/03 11:49:14;;;;;;;;;;;;;;;5.28;69.19;100519.66;5002149;28;2372;-83
2023/03/03 11:51:40;;;;;;;;;;;;;;;5.27;69.43;100512.69;4999382;28;2237;-83
2023/03/03 11:54:07;;;;;;;;;;;;;;;5.23;69.58;100518.41;5014098;28;2254;-82
2023/03/03 11:56:34;;;;;;;;;;;;;;;5.26;69.56;100508.34;5004902;28;2253;-83
2023/03/03 11:59:00;;;;;;;;;;;;;;;5.28;69.50;100504.47;4999808;28;1711;-82
2023/03/03 12:01:27;;;;;;;;;;;;;;;5.29;69.39;100499.97;4998218;28;2792;-83
2023/03/03 12:03:54;;;;;;;;;;;;;;;5.30;69.35;100496.28;5007657;28;2213;-84
2023/03/03 12:06:21;;;;;;;;;;;;;;;5.34;69.27;100490.38;5001288;28;2410;-83
2023/03/03 12:08:47;;;;;;;;;;;;;;;5.36;69.19;100477.66;4996934;28;2384;-84
2023/03/03 12:11:14;;;;;;;;;;;;;;;5.33;69.50;100483.38;5003552;28;2548;-83
2023/03/03 12:13:41;;;;;;;;;;;;;;;5.33;69.31;100471.88;5009612;28;2246;-83
2023/03/03 12:16:08;;;;;;;;;;;;;;;5.33;69.34;100459.34;5005528;28;2159;-83
2023/03/03 12:18:34;;;;;;;;;;;;;;;5.32;69.24;100451.50;5002394;28;5630;-83
2023/03/03 12:24:12;;;;;;;;;;;;;;;5.37;69.27;100455.28;4994839;28;5976;-83
2023/03/03 12:26:38;;;;;;;;;;;;;;;5.39;69.02;100455.91;4999217;28;5075;-82
2023/03/03 12:29:05;;;;;;;;;;;;;;;5.35;69.29;100443.13;5016446;28;1427;-83
2023/03/03 12:31:32;;;;;;;;;;;;;;;5.37;69.36;100436.56;5007337;28;5267;-82
2023/03/03 12:40:16;;;;;;;;;;;;;;;5.41;69.27;100424.53;4975468;28;5625;-83
2023/03/03 12:42:43;;;;;;;;;;;;;;;5.42;69.10;100420.81;5007284;28;5493;-83
2023/03/03 12:45:09;;;;;;;;;;;;;;;5.43;69.07;100418.97;5003755;28;2104;-82
2023/03/03 12:47:36;;;;;;;;;;;;;;;5.46;69.36;100416.75;5004498;28;5486;-82
2023/03/03 12:50:03;;;;;;;;;;;;;;;5.49;69.08;100423.56;5002319;28;2359;-82
2023/03/03 12:52:30;;;;;;;;;;;;;;;5.50;69.12;100417.22;5002681;28;1688;-81
2023/03/03 12:54:56;;;;;;;;;;;;;;;5.55;68.93;100419.31;5002397;28;2060;-82
2023/03/03 12:57:23;;;;;;;;;;;;;;;5.55;68.79;100417.44;5001696;28;2491;-82
2023/03/03 12:59:49;;;;;;;;;;;;;;;5.63;68.56;100414.66;5019488;28;2852;-82
2023/03/03 13:02:16;;;;;;;;;;;;;;;5.67;68.46;100391.88;5005669;28;2246;-82
2023/03/03 13:04:43;;;;;;;;;;;;;;;5.76;68.32;100407.78;5001956;28;2209;-82